createdAt,value
2023-03-11T00:02:07.614Z,9.25
2023-03-11T00:07:12.204Z,9.14
2023-03-11T00:12:17.120Z,9.02
2023-03-11T00:17:21.151Z,8.91
2023-03-11T00:22:22.843Z,8.82
2023-03-11T00:27:24.882Z,8.72
2023-03-11T00:32:26.642Z,8.65
2023-03-11T00:37:29.104Z,8.60
2023-03-11T00:42:31.291Z,8.53
2023-03-11T00:47:41.303Z,8.46
2023-03-11T00:52:48.383Z,8.45
2023-03-11T00:57:55.512Z,8.43
2023-03-11T01:02:59.645Z,8.40
2023-03-11T01:08:02.161Z,8.37
2023-03-11T01:13:04.745Z,8.33
2023-03-11T01:18:07.484Z,8.31
2023-03-11T01:23:11.234Z,8.26
2023-03-11T01:28:13.344Z,8.20
2023-03-11T01:33:19.325Z,8.15
2023-03-11T01:38:21.032Z,8.10
2023-03-11T01:43:45.076Z,8.09
2023-03-11T01:48:52.599Z,8.11
2023-03-11T01:53:57.175Z,8.13
2023-03-11T01:58:59.926Z,8.14
2023-03-11T02:04:03.932Z,8.13
2023-03-11T02:09:06.718Z,8.10
2023-03-11T02:14:09.653Z,8.08
2023-03-11T02:19:29.766Z,8.03
2023-03-11T02:24:50.434Z,7.93
2023-03-11T02:29:54.166Z,7.77
2023-03-11T02:34:57.090Z,7.61
2023-03-11T02:40:23.878Z,7.49
2023-03-11T02:45:30.722Z,7.43
2023-03-11T02:50:34.565Z,7.34
2023-03-11T02:55:36.580Z,7.24
2023-03-11T03:00:38.622Z,7.11
2023-03-11T03:05:42.118Z,6.96
2023-03-11T03:10:44.085Z,6.83
2023-03-11T03:15:46.035Z,6.69
2023-03-11T03:20:48.060Z,6.53
2023-03-11T03:25:52.131Z,6.37
2023-03-11T03:30:54.537Z,6.18
2023-03-11T03:35:57.050Z,6.04
2023-03-11T03:41:03.749Z,5.94
2023-03-11T03:46:06.073Z,5.82
2023-03-11T03:51:14.548Z,5.63
2023-03-11T03:56:51.944Z,5.44
2023-03-11T04:01:54.537Z,5.33
2023-03-11T04:06:57.108Z,5.20
2023-03-11T04:12:00.208Z,5.03
2023-03-11T04:17:02.611Z,4.88
2023-03-11T04:22:05.038Z,4.71
2023-03-11T04:27:06.922Z,4.50
2023-03-11T04:32:09.827Z,4.39
2023-03-11T04:37:11.978Z,4.30
2023-03-11T04:42:14.199Z,4.22
2023-03-11T04:47:18.020Z,4.11
2023-03-11T04:52:20.054Z,4.01
2023-03-11T04:57:22.141Z,3.93
2023-03-11T05:02:24.353Z,3.82
2023-03-11T05:07:29.511Z,3.69
2023-03-11T05:12:32.698Z,3.50
2023-03-11T05:17:35.006Z,3.20
2023-03-11T05:22:37.882Z,2.93
2023-03-11T05:27:40.577Z,2.80
2023-03-11T05:32:43.084Z,2.72
2023-03-11T05:37:44.910Z,2.67
2023-03-11T05:42:47.395Z,2.64
2023-03-11T05:47:49.495Z,2.56
2023-03-11T05:52:51.984Z,2.42
2023-03-11T05:57:54.372Z,2.29
2023-03-11T06:02:56.554Z,2.11
2023-03-11T06:07:58.830Z,1.88
2023-03-11T06:13:00.695Z,1.69
2023-03-11T06:18:06.431Z,1.47
2023-03-11T06:23:12.280Z,1.27
2023-03-11T06:28:14.250Z,1.18
2023-03-11T06:33:17.992Z,1.14
2023-03-11T06:38:20.159Z,1.15
2023-03-11T06:43:22.290Z,1.11
2023-03-11T06:48:25.251Z,1.10
2023-03-11T06:53:29.255Z,1.10
2023-03-11T06:58:32.890Z,1.14
2023-03-11T07:03:34.902Z,1.19
2023-03-11T07:08:36.812Z,1.24
2023-03-11T07:13:38.617Z,1.27
2023-03-11T07:18:40.338Z,1.27
2023-03-11T07:23:43.322Z,1.23
2023-03-11T07:28:45.143Z,1.17
2023-03-11T07:33:47.549Z,1.21
2023-03-11T07:38:54.195Z,1.31
2023-03-11T07:43:57.597Z,1.41
2023-03-11T07:49:01.437Z,1.33
2023-03-11T07:54:03.736Z,1.31
2023-03-11T07:59:05.684Z,1.24
2023-03-11T08:04:13.982Z,1.17
2023-03-11T08:09:16.296Z,1.13
2023-03-11T08:14:17.978Z,1.14
2023-03-11T08:19:19.799Z,1.03
2023-03-11T08:24:21.791Z,0.94
2023-03-11T08:29:24.775Z,0.99
2023-03-11T08:34:27.701Z,1.09
2023-03-11T08:39:29.842Z,1.12
2023-03-11T08:44:31.621Z,1.07
2023-03-11T08:49:34.715Z,0.92
2023-03-11T08:54:36.423Z,0.80
2023-03-11T08:59:38.192Z,0.69
2023-03-11T09:04:39.904Z,0.66
2023-03-11T09:09:41.568Z,0.63
2023-03-11T09:14:43.903Z,0.59
2023-03-11T09:19:45.690Z,0.56
2023-03-11T09:24:47.320Z,0.57
2023-03-11T09:29:49.409Z,0.59
2023-03-11T09:34:51.240Z,0.61
2023-03-11T09:39:52.913Z,0.66
2023-03-11T09:45:02.909Z,0.71
2023-03-11T09:50:17.329Z,0.67
2023-03-11T09:55:39.769Z,0.65
2023-03-11T10:00:42.196Z,0.69
2023-03-11T10:05:45.475Z,0.73
2023-03-11T10:10:57.137Z,0.75
2023-03-11T10:16:07.865Z,0.82
2023-03-11T10:21:16.433Z,0.85
2023-03-11T10:26:31.397Z,0.80
2023-03-11T10:31:50.925Z,0.78
2023-03-11T10:37:18.764Z,0.82
2023-03-11T10:42:25.747Z,0.78
2023-03-11T10:47:29.359Z,0.78
2023-03-11T10:52:31.051Z,0.81
2023-03-11T10:57:35.016Z,0.82
2023-03-11T11:02:49.707Z,0.91
2023-03-11T11:08:16.972Z,0.85
2023-03-11T11:13:21.832Z,0.74
2023-03-11T11:18:31.264Z,0.64
2023-03-11T11:23:44.284Z,0.56
2023-03-11T11:28:46.489Z,0.48
2023-03-11T11:33:48.115Z,0.46
2023-03-11T11:38:55.623Z,0.49
2023-03-11T11:44:02.711Z,0.53
2023-03-11T11:49:28.861Z,0.54
2023-03-11T11:54:38.676Z,0.56
2023-03-11T11:59:41.059Z,0.50
2023-03-11T12:04:50.673Z,0.41
2023-03-11T12:09:57.696Z,0.35
2023-03-11T12:15:29.306Z,0.33
2023-03-11T12:20:43.709Z,0.38
2023-03-11T12:25:58.233Z,0.44
2023-03-11T12:31:05.892Z,0.46
2023-03-11T12:36:30.472Z,0.51
2023-03-11T12:41:40.118Z,0.51
2023-03-11T12:46:54.523Z,0.48
2023-03-11T12:52:11.578Z,0.47
2023-03-11T12:57:16.341Z,0.48
2023-03-11T13:02:55.508Z,0.45
2023-03-11T13:08:03.628Z,0.43
2023-03-11T13:13:33.698Z,0.42
2023-03-11T13:18:35.902Z,0.39
2023-03-11T13:23:40.617Z,0.42
2023-03-11T13:29:01.837Z,0.47
2023-03-11T13:34:28.110Z,0.47
2023-03-11T13:39:38.756Z,0.47
2023-03-11T13:44:41.705Z,0.48
2023-03-11T13:49:59.728Z,0.47
2023-03-11T13:55:21.340Z,0.47
2023-03-11T14:00:29.287Z,0.50
2023-03-11T14:05:33.491Z,0.59
2023-03-11T14:10:35.385Z,0.71
2023-03-11T14:15:57.775Z,0.85
2023-03-11T14:21:00.347Z,0.93
2023-03-11T14:26:14.205Z,0.99
2023-03-11T14:31:34.097Z,0.99
2023-03-11T14:36:51.066Z,0.95
2023-03-11T14:41:58.366Z,0.87
2023-03-11T14:47:21.202Z,0.75
2023-03-11T14:53:10.044Z,0.63
2023-03-11T14:58:29.729Z,0.55
2023-03-11T15:03:35.748Z,0.51
2023-03-11T15:08:46.341Z,0.53
2023-03-11T15:13:51.286Z,0.58
2023-03-11T15:18:54.438Z,0.56
2023-03-11T15:24:06.538Z,0.51
2023-03-11T15:29:16.754Z,0.47
2023-03-11T15:34:18.483Z,0.44
2023-03-11T15:39:32.577Z,0.40
2023-03-11T15:44:37.138Z,0.26
2023-03-11T15:49:38.999Z,0.16
2023-03-11T15:54:40.917Z,0.04
2023-03-11T15:59:43.673Z,-0.02
2023-03-11T16:04:45.436Z,-0.01
2023-03-11T16:09:47.427Z,0.08
2023-03-11T16:14:50.517Z,0.17
2023-03-11T16:19:52.194Z,0.21
2023-03-11T16:24:54.471Z,0.19
2023-03-11T16:29:56.789Z,0.09
2023-03-11T16:34:58.514Z,0.05
2023-03-11T16:40:00.243Z,-0.00
2023-03-11T16:45:03.986Z,-0.02
2023-03-11T16:50:07.203Z,-0.04
2023-03-11T16:55:09.510Z,-0.10
2023-03-11T17:00:12.581Z,-0.14
2023-03-11T17:05:14.477Z,-0.16
2023-03-11T17:10:16.442Z,-0.19
2023-03-11T17:15:18.293Z,-0.19
2023-03-11T17:20:21.582Z,-0.22
2023-03-11T17:25:23.592Z,-0.23
2023-03-11T17:30:36.350Z,-0.23
2023-03-11T17:35:38.961Z,-0.24
2023-03-11T17:40:40.821Z,-0.28
2023-03-11T17:45:42.750Z,-0.30
2023-03-11T17:50:44.445Z,-0.32
2023-03-11T17:55:46.132Z,-0.37
2023-03-11T18:00:48.033Z,-0.39
2023-03-11T18:05:57.999Z,-0.40
2023-03-11T18:11:06.571Z,-0.40
2023-03-11T18:16:40.380Z,-0.40
2023-03-11T18:21:42.105Z,-0.41
2023-03-11T18:26:43.782Z,-0.41
2023-03-11T18:31:45.763Z,-0.38
2023-03-11T18:36:49.312Z,-0.36
2023-03-11T18:41:50.949Z,-0.37
2023-03-11T18:46:52.769Z,-0.39
2023-03-11T18:51:54.508Z,-0.38
2023-03-11T18:56:56.186Z,-0.39
2023-03-11T19:01:57.983Z,-0.43
2023-03-11T19:06:59.778Z,-0.44
2023-03-11T19:12:01.652Z,-0.41
2023-03-11T19:17:03.551Z,-0.34
2023-03-11T19:22:06.000Z,-0.31
2023-03-11T19:27:07.750Z,-0.28
2023-03-11T19:32:09.518Z,-0.24
2023-03-11T19:37:11.189Z,-0.23
2023-03-11T19:42:12.882Z,-0.24
2023-03-11T19:47:14.729Z,-0.27
2023-03-11T19:52:16.675Z,-0.28
2023-03-11T19:57:18.617Z,-0.30
2023-03-11T20:02:20.396Z,-0.34
2023-03-11T20:07:22.609Z,-0.44
2023-03-11T20:12:24.817Z,-0.55
2023-03-11T20:17:26.728Z,-0.65
2023-03-11T20:22:28.472Z,-0.69
2023-03-11T20:27:30.721Z,-0.67
2023-03-11T20:32:32.714Z,-0.67
2023-03-11T20:37:34.572Z,-0.71
2023-03-11T20:42:36.436Z,-0.78
2023-03-11T20:47:43.979Z,-0.82
2023-03-11T20:52:45.888Z,-0.81
2023-03-11T20:57:49.424Z,-0.82
2023-03-11T21:02:52.316Z,-0.86
2023-03-11T21:07:54.125Z,-0.93
2023-03-11T21:12:56.017Z,-0.94
2023-03-11T21:17:57.986Z,-0.94
2023-03-11T21:22:59.742Z,-0.94
2023-03-11T21:28:01.418Z,-0.96
2023-03-11T21:33:03.204Z,-0.98
2023-03-11T21:38:05.096Z,-0.97
2023-03-11T21:43:06.937Z,-0.95
2023-03-11T21:48:10.173Z,-0.91
2023-03-11T21:53:11.937Z,-0.86
2023-03-11T21:58:14.875Z,-0.80
2023-03-11T22:03:16.620Z,-0.77
2023-03-11T22:08:18.419Z,-0.77
2023-03-11T22:13:24.898Z,-0.73
2023-03-11T22:18:27.026Z,-0.69
2023-03-11T22:23:29.098Z,-0.64
2023-03-11T22:28:30.850Z,-0.62
2023-03-11T22:33:32.713Z,-0.57
2023-03-11T22:38:36.878Z,-0.52
2023-03-11T22:43:40.337Z,-0.50
2023-03-11T22:48:42.300Z,-0.53
2023-03-11T22:54:04.005Z,-0.54
2023-03-11T22:59:05.724Z,-0.53
2023-03-11T23:04:07.705Z,-0.57
2023-03-11T23:09:09.489Z,-0.59
2023-03-11T23:14:11.176Z,-0.57
2023-03-11T23:19:13.588Z,-0.57
2023-03-11T23:24:15.264Z,-0.59
2023-03-11T23:29:16.982Z,-0.64
2023-03-11T23:34:19.018Z,-0.73
2023-03-11T23:39:20.801Z,-0.80
2023-03-11T23:44:24.063Z,-0.89
2023-03-11T23:49:27.220Z,-1.03
2023-03-11T23:54:28.926Z,-1.21
2023-03-11T23:59:30.663Z,-1.36
